CWYO2: Chewey Road

                                SHEF ID:       CWYO2     Illinois River at Chewey, OK
STATION TYPE:
Regulating: Stage = 12.00, Flow = 13730

PRECIP STAGE STAGE(2) RIV-FLOW BAT-LOAD
in ft ft cfs volt
Ccp-Rev Ccp-Rev Ccp-Rev Ccp-Rev Ccp-Rev
(America/Chicago)
05/01 00:00 0.00 5.09 5.07 1887 12.46
05/01 01:00 0.00 5.06 5.03 1860 12.45
05/01 02:00 0.00 5.05 5.01 1851 12.43
05/01 03:00 0.00 5.03 5.01 1834 12.42
05/01 04:00 0.00 5.02 4.99 1825 12.40
05/01 05:00 0.00 5.00 4.97 1808 12.40
05/01 06:00 0.00 4.98 4.94 1791 12.39
05/01 07:00 0.00 4.95 4.92 1766 12.37
05/01 08:00 0.00 4.93 4.89 1749 12.40
05/01 09:00 0.00 4.91 4.87 1733 12.44
05/01 10:00 0.00 4.88 4.86 1708 12.53
05/01 11:00 0.00 4.87 4.84 1700 12.71
05/01 12:00 0.00 4.85 4.82 1683 12.76
05/01 13:00 0.00 4.83 4.80 1667 12.78
05/01 14:00 0.00 4.81 4.77 1650 12.73
05/01 15:00 0.00 4.77 4.74 1618 12.78
05/01 16:00 0.00 4.75 4.72 1601 12.70
05/01 17:00 0.00 4.74 4.71 1593 12.66
05/01 18:00 0.00 4.72 4.70 1577 12.65
05/01 19:00 0.00 4.70 4.67 1561 12.61
05/01 20:00 0.00 4.69 4.66 1553 12.58
05/01 21:00 0.00 4.67 4.66 1537 12.53
05/01 22:00 0.00 4.66 4.64 1528 12.50
05/01 23:00 0.00 4.64 4.62 1512 12.49
Data processed at Sat 02May2026 04:29 GMT

NOTICE: If you are parsing this page

Please convert to using our Data API. Starting early 2026 we will be migrating to: https://water.usace.army.mil with modern pages rendered in JavaScript. When this migration completes you will no longer be able to scrape this page! CWMSDataAPI (CDA)

Timeseries IDs (TSIDs)

TSIDs used from left to right in the data table
CHEW.Precip-Inc.Total.1Hour.1Hour.Ccp-Rev
CHEW.Stage.Inst.1Hour.0.Ccp-Rev
CHEW.Stage-Alt.Inst.1Hour.0.Ccp-Rev
CHEW.Flow.Inst.1Hour.0.Ccp-Rev
CHEW.Volt-Battery Load.Inst.1Hour.0.Ccp-Rev

                            

All information presented herein is the property of the government of the United States of America and may be revised or deleted at any time without prior notice. Dissemination of this information without the expressed written consent of the Public Affairs Office, Tulsa District U.S. Army Corps of Engineers is strictly prohibited. These data are gathered electronically and, as presented, have NOT undergone any form of quality control. These data are NOT guaranteed to be valid or correct.